»·PEaware :: SKY869 KFHR-KORS

SKY869 :: KFHR-KORS

FLIGHT INFORMATION

Flight Status: Arrived
Operator:
Sky High Charters
More flights by this operator :: More flights under this callsign
Pilot: Kyle C. (28777)
Aircraft: SOCATA TBM-900
(TBM9)
More flights by this aircraft type
Origin: KFHR Friday Harbor
United States
Destination: KORS Orcas Island
United States
More flights between these airports :: More routes between these airports
Route: FHR HUH
File this flight plan on PilotEdge
Remarks: Sky High #2
Altitude:
(Current/Filed)
5,000ft
Speed:
(Current/Filed)
200kts
Departed: 21-Apr-20 11:16 AM
Arrived: 21-Apr-20 11:40 AM
Distance/Time
Traveled:
12nm/0:23
Distance/Time
To Go:
Arrived

Flight Plot

Page will automatically refresh every two minutes.

Flight plan parsing failed; only flown route is shown


Map Options




Map Legend


Flown Route
Filed Route
Departure Airport
Arrival Airport
Navaid (VOR, NDB)
Fix

Horizontal Profiles

Position Reports

Time Latitude Longitude Heading Altitude Ground
Speed
21-Apr-20 10:52 48.525733 -123.026308 184 117ft 0kts
21-Apr-20 10:53 48.525733 -123.026308 184 117ft 0kts
21-Apr-20 10:54 48.525733 -123.026308 184 117ft 0kts
21-Apr-20 10:55 48.525733 -123.026308 184 117ft 0kts
21-Apr-20 10:56 48.525733 -123.026308 184 117ft 0kts
21-Apr-20 10:57 48.525733 -123.026308 184 117ft 0kts
21-Apr-20 10:58 48.525733 -123.026308 184 117ft 0kts
21-Apr-20 10:59 48.525733 -123.026308 184 117ft 0kts
21-Apr-20 11:00 48.525733 -123.026308 184 117ft 0kts
21-Apr-20 11:01 48.525733 -123.026308 184 117ft 0kts
21-Apr-20 11:02 48.525733 -123.026308 184 117ft 0kts
21-Apr-20 11:03 48.525733 -123.026308 184 117ft 0kts
21-Apr-20 11:05 48.525733 -123.026308 184 117ft 0kts
21-Apr-20 11:06 48.525733 -123.026308 184 117ft 0kts
21-Apr-20 11:07 48.525733 -123.026308 184 117ft 0kts
21-Apr-20 11:08 48.525733 -123.026308 184 117ft 0kts
21-Apr-20 11:09 48.525732 -123.026308 184 117ft 0kts
21-Apr-20 11:10 48.525732 -123.026308 184 117ft 0kts
21-Apr-20 11:11 48.525732 -123.026308 184 117ft 0kts
21-Apr-20 11:12 48.525732 -123.026308 184 117ft 0kts
21-Apr-20 11:13 48.525885 -123.025317 10 113ft 5kts
21-Apr-20 11:14 48.526443 -123.025326 6 115ft 0kts
21-Apr-20 11:15 48.526225 -123.024644 180 112ft 0kts
21-Apr-20 11:16 48.524364 -123.024488 178 104ft 73kts
21-Apr-20 11:17 48.490985 -123.015543 130 1925ft 133kts
21-Apr-20 11:18 48.509219 -122.974990 29 4436ft 142kts
21-Apr-20 11:19 48.554153 -122.934600 29 5003ft 234kts
21-Apr-20 11:20 48.611565 -122.882856 29 4971ft 230kts
21-Apr-20 11:21 48.666462 -122.833243 29 4970ft 225kts
21-Apr-20 11:22 48.720512 -122.784268 29 4969ft 224kts
21-Apr-20 11:23 48.773876 -122.735790 29 4962ft 213kts
21-Apr-20 11:23 48.815859 -122.697566 29 4964ft 205kts
21-Apr-20 11:24 48.845260 -122.628206 75 4966ft 202kts
21-Apr-20 11:26 48.863583 -122.531738 68 4961ft 203kts
21-Apr-20 11:27 48.912297 -122.472057 35 4975ft 247kts
21-Apr-20 11:27 48.962889 -122.431132 346 4953ft 251kts
21-Apr-20 11:28 49.000977 -122.510703 275 4942ft 217kts
21-Apr-20 11:30 48.959651 -122.560569 219 4953ft 151kts
21-Apr-20 11:30 48.940106 -122.601621 247 4570ft 156kts
21-Apr-20 11:31 48.923377 -122.671881 247 3174ft 190kts
21-Apr-20 11:32 48.905039 -122.744662 229 2005ft 177kts
21-Apr-20 11:33 48.869476 -122.782215 209 1970ft 152kts
21-Apr-20 11:34 48.834796 -122.813055 209 1964ft 134kts
21-Apr-20 11:35 48.802768 -122.841448 209 1973ft 132kts
21-Apr-20 11:36 48.772081 -122.868601 209 1447ft 96kts
21-Apr-20 11:37 48.746057 -122.891593 209 853ft 109kts
21-Apr-20 11:38 48.720838 -122.909680 187 146ft 83kts
21-Apr-20 11:39 48.707359 -122.910417 136 30ft 14kts
21-Apr-20 11:40 48.706235 -122.909752 180 33ft 0kts
21-Apr-20 11:41 48.706235 -122.909752 180 33ft 0kts
21-Apr-20 11:42 48.706235 -122.909752 180 33ft 0kts
21-Apr-20 11:43 48.706235 -122.909752 180 33ft 0kts
21-Apr-20 11:44 48.706235 -122.909752 180 33ft 0kts
21-Apr-20 11:45 48.706235 -122.909752 180 33ft 0kts
21-Apr-20 11:46 48.706235 -122.909752 180 33ft 0kts
21-Apr-20 11:47 48.706235 -122.909752 180 33ft 0kts
21-Apr-20 11:48 48.706235 -122.909752 180 33ft 0kts
21-Apr-20 11:49 48.706235 -122.909752 180 33ft 0kts
21-Apr-20 11:50 48.706235 -122.909752 180 33ft 0kts
21-Apr-20 11:51 48.706235 -122.909752 180 33ft 0kts
21-Apr-20 11:52 48.706235 -122.909752 180 33ft 0kts
21-Apr-20 11:53 48.706235 -122.909752 180 33ft 0kts

Navigation Log

Ident Type
Flight plan parsing failed, navigation log unavailable